Falconia — H3QI — position and weather

sailwx.info

Track history (hours):
 
Tides and Currents Weather Stations Pressure Air Temp Water Temp Dewpoint Dewpoint Depression Visibility Wind Speed Wind Dir Waves Ship Positions

Falconia

Last reported at 2014-Dec-30 22:33 UTC. Time now 2015-Jan-26 22:30 UTC.
Position N 37°46' E 122°04'.
Warning: this ship's position is 26 days out of date.

Length 88 m; draft 4 m.

Type: Cargo ship. MMSI: 353620000.

Date/timePositionNaut miles runAvg speedWind from/ knotsBaromVisibWave heightAir tempDewpointWater temp
2014-Dec-30 22:33N 37°46' E 122°04'2412.0
2014-Dec-30 20:33N 37°50' E 121°33'1211.8
2014-Dec-30 19:33N 37°52' E 121°19'3611.7
2014-Dec-30 16:30N 38°01' E 120°35'1111.9
2014-Dec-30 15:33N 38°04' E 120°21'2010.1
2014-Dec-30 13:33N 38°03' E 119°56'1211.7
2014-Dec-30 12:33N 37°54' E 119°46'  
2014-Dec-27 20:33N 37°34' E 119°28'1010.4
2014-Dec-27 19:33N 37°43' E 119°36'1110.5
2014-Dec-27 18:33N 37°51' E 119°43'1110.5
2014-Dec-27 17:30N 38°00' E 119°52'1110.8
2014-Dec-27 16:32N 38°09' E 119°60'1210.8
2014-Dec-27 15:27N 38°07' E 120°14'910.6
2014-Dec-27 14:33N 38°04' E 120°26'3210.4
2014-Dec-27 11:29N 37°58' E 121°05'1010.4
2014-Dec-27 10:33N 37°57' E 121°18'11 5.3
2014-Dec-27 08:33N 37°56' E 121°31'9 9.2
2014-Dec-27 07:33N 37°52' E 121°41'9 9.5
2014-Dec-27 06:33N 37°50' E 121°53'10 9.1
2014-Dec-27 05:27N 37°47' E 122°05'8 9.2
2014-Dec-27 04:33N 37°45' E 122°15'11 9.3
2014-Dec-27 03:25N 37°44' E 122°29'12 9.9
2014-Dec-27 02:13N 37°40' E 122°43'3311.8
2014-Dec-26 23:25N 37°08' E 122°55'1011.5
2014-Dec-26 22:32N 36°59' E 122°60'  
Track history (hours):
 
Tides and Currents Weather Stations Pressure Air Temp Water Temp Dewpoint Dewpoint Depression Visibility Wind Speed Wind Dir Waves Ship Positions

Falconia

Last reported at 2014-Dec-30 22:33 UTC. Time now 2015-Jan-26 22:30 UTC.
Position N 37°46' E 122°04'.
Warning: this ship's position is 26 days out of date.

Length 88 m; draft 4 m.

Type: Cargo ship. MMSI: 353620000.

Date/timePositionNaut miles runAvg speedWind from/ knotsBaromVisibWave heightAir tempDewpointWater temp
2014-Dec-30 22:33N 37°46' E 122°04'2412.0
2014-Dec-30 20:33N 37°50' E 121°33'1211.8
2014-Dec-30 19:33N 37°52' E 121°19'3611.7
2014-Dec-30 16:30N 38°01' E 120°35'1111.9
2014-Dec-30 15:33N 38°04' E 120°21'2010.1
2014-Dec-30 13:33N 38°03' E 119°56'1211.7
2014-Dec-30 12:33N 37°54' E 119°46'  
2014-Dec-27 20:33N 37°34' E 119°28'1010.4
2014-Dec-27 19:33N 37°43' E 119°36'1110.5
2014-Dec-27 18:33N 37°51' E 119°43'1110.5
2014-Dec-27 17:30N 38°00' E 119°52'1110.8
2014-Dec-27 16:32N 38°09' E 119°60'1210.8
2014-Dec-27 15:27N 38°07' E 120°14'910.6
2014-Dec-27 14:33N 38°04' E 120°26'3210.4
2014-Dec-27 11:29N 37°58' E 121°05'1010.4
2014-Dec-27 10:33N 37°57' E 121°18'11 5.3
2014-Dec-27 08:33N 37°56' E 121°31'9 9.2
2014-Dec-27 07:33N 37°52' E 121°41'9 9.5
2014-Dec-27 06:33N 37°50' E 121°53'10 9.1
2014-Dec-27 05:27N 37°47' E 122°05'8 9.2
2014-Dec-27 04:33N 37°45' E 122°15'11 9.3
2014-Dec-27 03:25N 37°44' E 122°29'12 9.9
2014-Dec-27 02:13N 37°40' E 122°43'3311.8
2014-Dec-26 23:25N 37°08' E 122°55'1011.5
2014-Dec-26 22:32N 36°59' E 122°60'  

Dump ship's entire track history